Time;durP1;ratioP1;P1;durP2;ratioP2;P2;SDS_P1;SDS_P2;PMS_P1;PMS_P2;Temp;Humidity;BMP_temperature;BMP_pressure;BME280_temperature;BME280_humidity;BME280_pressure;Samples;Min_cycle;Max_cycle;Signal;HPM_P1;HPM_P2
2023/04/25 00:02:20;;;;;;;11.80;3.97;;;;;;;7.96;82.29;101029.97;5074351;28;20469;-64
2023/04/25 00:04:48;;;;;;;13.43;3.97;;;;;;;7.95;81.76;101036.09;5073880;28;20522;-64
2023/04/25 00:07:14;;;;;;;9.65;3.60;;;;;;;7.93;81.84;101037.81;5056468;28;20039;-64
2023/04/25 00:09:39;;;;;;;8.43;3.28;;;;;;;7.94;82.50;101039.56;5073816;28;20033;-64
2023/04/25 00:12:05;;;;;;;10.90;3.90;;;;;;;7.93;81.57;101040.44;5073779;28;20029;-64
2023/04/25 00:14:33;;;;;;;16.20;3.90;;;;;;;7.96;82.28;101050.13;5074071;28;20032;-63
2023/04/25 00:16:59;;;;;;;9.43;3.42;;;;;;;7.95;81.50;101054.50;5073761;28;20457;-64
2023/04/25 00:19:26;;;;;;;12.10;3.92;;;;;;;7.92;81.47;101057.09;5073792;28;20032;-64
2023/04/25 00:21:53;;;;;;;16.90;4.10;;;;;;;7.87;81.88;101060.44;5073724;28;20056;-63
2023/04/25 00:24:19;;;;;;;14.35;3.70;;;;;;;7.84;82.17;101061.25;5073616;28;20024;-64
2023/04/25 00:26:45;;;;;;;11.85;3.67;;;;;;;7.89;82.99;101061.38;5073363;28;20020;-63
2023/04/25 00:29:10;;;;;;;10.80;3.60;;;;;;;7.85;82.57;101054.25;5073497;28;20017;-64
2023/04/25 00:31:36;;;;;;;17.10;3.42;;;;;;;7.81;81.51;101053.28;5073758;28;20032;-63
2023/04/25 00:34:01;;;;;;;12.25;3.28;;;;;;;7.78;82.89;101054.09;5073294;28;20052;-64
2023/04/25 00:36:27;;;;;;;12.18;3.53;;;;;;;7.78;82.28;101048.81;5073542;28;20029;-63
2023/04/25 00:38:54;;;;;;;13.57;3.70;;;;;;;7.80;82.61;101048.88;5073331;28;20043;-64
2023/04/25 00:41:20;;;;;;;10.93;3.70;;;;;;;7.81;81.87;101052.41;5055679;28;20025;-63
2023/04/25 00:43:48;;;;;;;15.55;4.18;;;;;;;7.77;82.30;101047.06;5072476;28;20201;-63
2023/04/25 00:46:13;;;;;;;15.77;3.72;;;;;;;7.81;81.59;101048.03;5073336;28;20025;-64
2023/04/25 00:48:39;;;;;;;12.93;3.83;;;;;;;7.76;81.98;101040.00;5073285;28;20520;-63
2023/04/25 00:51:04;;;;;;;15.13;3.33;;;;;;;7.73;81.88;101045.19;5073238;28;20103;-63
2023/04/25 00:53:31;;;;;;;10.23;3.45;;;;;;;7.69;81.97;101031.91;5073627;28;20037;-64
2023/04/25 00:55:57;;;;;;;11.15;3.38;;;;;;;7.69;81.66;101051.22;5073026;28;20051;-64
2023/04/25 00:58:22;;;;;;;11.45;3.70;;;;;;;7.65;81.80;101053.72;5073117;28;20033;-64
2023/04/25 01:00:50;;;;;;;13.18;3.70;;;;;;;7.61;81.80;101052.75;5073079;28;20386;-64
2023/04/25 01:03:17;;;;;;;11.35;3.83;;;;;;;7.59;82.33;101053.59;5073204;28;20028;-64
2023/04/25 01:05:43;;;;;;;10.57;3.47;;;;;;;7.57;82.35;101053.53;5073294;28;20070;-64
2023/04/25 01:08:09;;;;;;;13.20;3.40;;;;;;;7.57;81.88;101055.28;5073078;28;20024;-63
2023/04/25 01:10:35;;;;;;;10.63;3.45;;;;;;;7.51;82.05;101051.63;5072927;28;20029;-64
2023/04/25 01:13:00;;;;;;;10.95;3.58;;;;;;;7.51;82.48;101046.38;5073013;28;20016;-64
2023/04/25 01:15:26;;;;;;;17.20;5.25;;;;;;;7.53;81.87;101047.28;5072992;28;20036;-64
2023/04/25 01:17:52;;;;;;;12.60;3.80;;;;;;;7.51;82.83;101048.13;5072932;28;20035;-64
2023/04/25 01:20:21;;;;;;;12.25;3.47;;;;;;;7.49;82.58;101050.72;5072979;28;20035;-64
2023/04/25 01:22:46;;;;;;;12.68;3.90;;;;;;;7.53;82.33;101055.19;5073038;28;20025;-64
2023/04/25 01:25:12;;;;;;;11.20;3.63;;;;;;;7.51;82.74;101056.91;5072657;28;20382;-64
2023/04/25 01:27:38;;;;;;;13.15;3.60;;;;;;;7.53;82.22;101063.06;5072874;28;20029;-64
2023/04/25 01:30:05;;;;;;;13.43;4.40;;;;;;;7.49;83.37;101055.06;5072612;28;20060;-62
2023/04/25 01:32:37;;;;;;;14.50;4.20;;;;;;;7.46;82.76;101062.91;5072780;28;20551;-63
2023/04/25 01:35:03;;;;;;;;;;;;;;;7.56;81.81;101062.28;5073044;28;20123;-63
2023/04/25 01:37:29;;;;;;;13.13;3.40;;;;;;;7.46;82.86;101071.66;5072895;28;20347;-63
2023/04/25 01:39:54;;;;;;;12.27;3.65;;;;;;;7.44;83.70;101062.84;5072742;28;20486;-63
2023/04/25 01:42:20;;;;;;;14.25;3.75;;;;;;;7.49;83.41;101071.75;5072518;28;20393;-63
2023/04/25 01:44:45;;;;;;;12.57;4.45;;;;;;;7.49;83.47;101071.75;5072594;28;20496;-63
2023/04/25 01:47:11;;;;;;;11.20;3.65;;;;;;;7.53;83.86;101070.97;5072634;28;20385;-63
2023/04/25 01:49:36;;;;;;;12.48;3.70;;;;;;;7.60;83.66;101072.03;5055044;28;20474;-63
2023/04/25 01:52:01;;;;;;;13.55;3.88;;;;;;;7.58;81.99;101065.84;5072615;28;20468;-63
2023/04/25 01:54:27;;;;;;;15.63;4.03;;;;;;;7.58;83.00;101065.84;5073648;28;20481;-62
2023/04/25 01:56:52;;;;;;;15.70;3.85;;;;;;;7.55;82.73;101073.66;5076218;28;20021;-62
2023/04/25 01:59:19;;;;;;;15.82;4.10;;;;;;;7.52;83.26;101077.06;5076365;28;20370;-63
2023/04/25 02:01:45;;;;;;;17.98;4.20;;;;;;;7.45;83.25;101072.53;5076416;28;20024;-62
2023/04/25 02:04:10;;;;;;;19.35;3.90;;;;;;;7.44;82.86;101060.19;5041566;28;20491;-63
2023/04/25 02:06:36;;;;;;;15.77;3.55;;;;;;;7.42;82.72;101074.19;5076235;28;20055;-63
2023/04/25 02:09:01;;;;;;;15.27;3.90;;;;;;;7.40;83.07;101082.00;5076206;28;20103;-63
2023/04/25 02:11:26;;;;;;;15.48;3.72;;;;;;;7.42;81.85;101082.94;5076121;28;20101;-63
2023/04/25 02:13:52;;;;;;;15.80;3.75;;;;;;;7.43;82.35;101081.19;5076089;28;20385;-62
2023/04/25 02:16:17;;;;;;;16.80;3.80;;;;;;;7.36;81.80;101089.75;5076085;28;20056;-63
2023/04/25 02:18:44;;;;;;;15.90;3.45;;;;;;;7.35;81.83;101091.50;5075942;28;20433;-63
2023/04/25 02:21:11;;;;;;;17.55;3.58;;;;;;;7.36;82.03;101088.03;5076126;28;20028;-65
2023/04/25 02:23:37;;;;;;;11.80;3.53;;;;;;;7.39;82.66;101093.38;5075966;28;20039;-63
2023/04/25 02:26:02;;;;;;;14.88;4.03;;;;;;;7.34;82.28;101089.72;5075669;28;20111;-63
2023/04/25 02:28:27;;;;;;;18.25;4.10;;;;;;;7.33;82.23;101090.59;5075846;28;20089;-63
2023/04/25 02:30:53;;;;;;;15.60;4.00;;;;;;;7.29;82.22;101093.97;5075849;28;20017;-63
2023/04/25 02:33:18;;;;;;;19.60;4.07;;;;;;;7.30;81.44;101086.97;5057823;28;20036;-63
2023/04/25 02:35:44;;;;;;;14.20;3.90;;;;;;;7.29;82.14;101086.09;5057748;28;20444;-63
2023/04/25 02:38:09;;;;;;;13.30;3.88;;;;;;;7.25;82.73;101097.38;5075952;28;20108;-63
2023/04/25 02:40:35;;;;;;;13.73;3.80;;;;;;;7.23;81.89;101088.53;5075862;28;20025;-63
2023/04/25 02:43:00;;;;;;;13.80;3.70;;;;;;;7.19;82.06;101097.16;5057672;28;20064;-62
2023/04/25 02:45:26;;;;;;;15.40;3.90;;;;;;;7.16;82.13;101090.09;5075538;28;20036;-62
2023/04/25 02:47:51;;;;;;;14.70;4.15;;;;;;;7.12;82.29;101096.13;5075585;28;20075;-62
2023/04/25 02:50:18;;;;;;;15.32;4.30;;;;;;;7.07;82.12;101094.22;5057916;28;20082;-62
2023/04/25 02:52:43;;;;;;;13.63;4.00;;;;;;;7.00;82.45;101095.75;5075526;28;20025;-63
2023/04/25 02:55:10;;;;;;;14.07;3.97;;;;;;;6.96;81.98;101101.78;5075410;28;20039;-62
2023/04/25 02:57:36;;;;;;;17.00;3.80;;;;;;;6.91;82.77;101088.50;5075304;28;20032;-62
2023/04/25 03:00:01;;;;;;;14.45;4.75;;;;;;;6.96;82.62;101101.78;5075221;28;20036;-63
2023/04/25 03:02:26;;;;;;;13.40;3.88;;;;;;;6.97;82.68;101101.81;5075443;28;20501;-62
2023/04/25 03:04:52;;;;;;;13.93;4.40;;;;;;;6.97;82.01;101104.44;5075159;28;20521;-63
2023/04/25 03:07:17;;;;;;;15.77;3.75;;;;;;;6.94;82.28;101095.59;5074196;28;20032;-62
2023/04/25 03:09:43;;;;;;;12.63;3.83;;;;;;;6.89;82.30;101098.06;5075149;28;20032;-63
2023/04/25 03:12:08;;;;;;;12.73;3.95;;;;;;;6.91;82.09;101106.91;5057092;28;20100;-62
2023/04/25 03:14:33;;;;;;;15.18;3.80;;;;;;;6.91;82.87;101103.38;5074927;28;20124;-62
2023/04/25 03:16:59;;;;;;;18.73;3.95;;;;;;;6.87;82.14;101107.66;5057069;28;20024;-63
2023/04/25 03:19:24;;;;;;;16.95;4.13;;;;;;;6.91;82.29;101111.25;5056912;28;20035;-64
2023/04/25 03:21:50;;;;;;;13.02;4.10;;;;;;;6.86;82.09;101099.72;5075152;28;20408;-62
2023/04/25 03:24:15;;;;;;;15.43;4.13;;;;;;;6.86;82.02;101107.63;5074761;28;20029;-65
2023/04/25 03:26:42;;;;;;;17.08;3.83;;;;;;;6.85;82.08;101111.97;5074311;28;20045;-63
2023/04/25 03:29:08;;;;;;;13.88;4.13;;;;;;;6.84;82.48;101114.53;5074695;28;20086;-62
2023/04/25 03:31:34;;;;;;;10.57;3.92;;;;;;;6.90;82.22;101109.50;5056884;28;20545;-63
2023/04/25 03:33:59;;;;;;;12.70;3.63;;;;;;;6.91;83.60;101100.75;5074342;28;20130;-63
2023/04/25 03:36:24;;;;;;;15.80;4.03;;;;;;;6.90;82.50;101107.75;5057110;28;20039;-63
2023/04/25 03:38:50;;;;;;;15.80;4.00;;;;;;;6.93;82.86;101112.19;5056664;28;20550;-64
2023/04/25 03:41:15;;;;;;;17.48;4.22;;;;;;;6.93;82.78;101109.56;5074496;28;20112;-63
2023/04/25 03:43:41;;;;;;;14.45;4.10;;;;;;;6.97;82.44;101104.44;5074401;28;20416;-63
2023/04/25 03:46:06;;;;;;;19.08;4.57;;;;;;;6.94;82.44;101098.22;5074369;28;20036;-63
2023/04/25 03:48:31;;;;;;;13.45;4.35;;;;;;;6.95;82.73;101100.00;5074395;28;20032;-64
2023/04/25 03:50:57;;;;;;;20.08;4.35;;;;;;;7.00;82.15;101104.53;5074556;28;20524;-63
2023/04/25 03:53:22;;;;;;;15.43;4.25;;;;;;;6.99;82.55;101104.50;5074311;28;20087;-64
2023/04/25 03:55:48;;;;;;;16.23;5.38;;;;;;;7.01;82.02;101102.78;5074017;28;20462;-63
2023/04/25 03:58:13;;;;;;;18.55;4.30;;;;;;;7.01;82.11;101103.69;5074125;28;20135;-63
2023/04/25 04:00:39;;;;;;;13.20;4.30;;;;;;;7.03;83.06;101104.63;5056185;28;20085;-63
2023/04/25 04:03:04;;;;;;;14.32;4.30;;;;;;;7.00;82.61;101112.41;5074242;28;20136;-63
2023/04/25 04:05:29;;;;;;;12.85;4.05;;;;;;;7.05;82.48;101111.66;5074069;28;20037;-63
2023/04/25 04:07:55;;;;;;;15.02;4.55;;;;;;;7.01;82.63;101116.81;5073968;28;20024;-63
2023/04/25 04:10:22;;;;;;;15.43;4.50;;;;;;;6.98;82.44;101124.63;5074275;28;20457;-64
2023/04/25 04:12:47;;;;;;;14.27;4.22;;;;;;;7.02;82.36;101123.88;5055972;28;20025;-63
2023/04/25 04:15:13;;;;;;;16.10;4.40;;;;;;;7.09;82.90;101131.94;5073858;28;20025;-63
2023/04/25 04:17:38;;;;;;;14.20;3.97;;;;;;;7.12;83.17;101130.28;5073768;28;20098;-63
2023/04/25 04:20:05;;;;;;;16.85;4.07;;;;;;;7.14;82.40;101125.06;5074037;28;20042;-63
2023/04/25 04:22:31;;;;;;;17.23;4.57;;;;;;;7.16;82.55;101126.91;5073667;28;20024;-63
2023/04/25 04:24:56;;;;;;;14.43;3.97;;;;;;;7.21;83.29;101130.53;5073358;28;20055;-63
2023/04/25 04:27:22;;;;;;;11.38;4.35;;;;;;;7.15;82.69;101134.72;5073535;28;20024;-65
2023/04/25 04:29:48;;;;;;;12.27;4.05;;;;;;;7.20;82.65;101138.41;5073407;28;20032;-63
2023/04/25 04:32:15;;;;;;;16.52;4.15;;;;;;;7.17;82.37;101138.31;5073574;28;20028;-63
2023/04/25 04:34:41;;;;;;;17.35;4.10;;;;;;;7.15;82.72;101139.97;5073104;28;20083;-63
2023/04/25 04:37:07;;;;;;;15.00;4.47;;;;;;;7.12;82.45;101142.53;5073632;28;20016;-62
2023/04/25 04:39:33;;;;;;;13.13;4.40;;;;;;;7.10;82.89;101142.47;5073317;28;20052;-62
2023/04/25 04:41:59;;;;;;;14.55;4.35;;;;;;;7.08;82.45;101145.91;5073141;28;20079;-63
2023/04/25 04:44:25;;;;;;;15.60;4.20;;;;;;;7.08;81.72;101152.06;5073137;28;20028;-62
2023/04/25 04:46:51;;;;;;;15.43;4.05;;;;;;;7.07;81.87;101147.66;5073535;28;20067;-62
2023/04/25 04:49:17;;;;;;;17.60;4.30;;;;;;;7.08;81.72;101159.06;5073432;28;20033;-62
2023/04/25 04:51:44;;;;;;;15.98;4.25;;;;;;;7.05;81.80;101151.97;5073397;28;20056;-63
2023/04/25 04:54:09;;;;;;;16.60;4.03;;;;;;;7.07;82.80;101152.91;5073291;28;20040;-62
2023/04/25 04:56:35;;;;;;;15.85;4.05;;;;;;;7.09;81.79;101160.84;5073022;28;20035;-62
2023/04/25 04:59:02;;;;;;;15.85;4.13;;;;;;;7.09;81.52;101161.72;5073299;28;20078;-62
2023/04/25 05:01:29;;;;;;;15.38;5.30;;;;;;;7.11;81.80;101161.75;5073084;28;20060;-63
2023/04/25 05:03:59;;;;;;;15.38;4.82;;;;;;;7.13;82.19;101170.59;5072901;28;20505;-62
2023/04/25 05:06:26;;;;;;;22.00;4.50;;;;;;;7.14;81.76;101169.75;5056213;28;20036;-62
2023/04/25 05:08:52;;;;;;;13.95;4.43;;;;;;;7.12;81.25;101174.06;5073001;28;20033;-63
2023/04/25 05:11:17;;;;;;;13.73;4.40;;;;;;;7.15;81.42;101182.03;5073080;28;20040;-62
2023/04/25 05:13:43;;;;;;;18.67;5.15;;;;;;;7.13;82.20;101186.34;5072930;28;20090;-62
2023/04/25 05:16:08;;;;;;;13.65;4.18;;;;;;;7.17;82.12;101199.63;5073084;28;20086;-62
2023/04/25 05:18:34;;;;;;;14.43;4.30;;;;;;;7.21;81.48;101190.09;5055016;28;20020;-62
2023/04/25 05:20:59;;;;;;;15.57;4.40;;;;;;;7.23;81.93;101197.19;5072912;28;20441;-64
2023/04/25 05:23:24;;;;;;;16.60;4.20;;;;;;;7.25;81.56;101191.97;5072942;28;20120;-63
2023/04/25 05:25:50;;;;;;;16.60;4.13;;;;;;;7.28;80.86;101199.97;5072803;28;20036;-62
2023/04/25 05:28:15;;;;;;;17.17;4.47;;;;;;;7.29;80.69;101199.13;5072805;28;20486;-62
2023/04/25 05:30:41;;;;;;;17.05;4.43;;;;;;;7.26;80.90;101204.28;5079157;28;20032;-63
2023/04/25 05:33:06;;;;;;;13.68;3.90;;;;;;;7.31;80.91;101213.19;5079559;28;20032;-63
2023/04/25 05:35:32;;;;;;;14.60;4.07;;;;;;;7.34;81.27;101213.28;5079333;28;20101;-63
2023/04/25 05:37:57;;;;;;;14.75;3.75;;;;;;;7.37;80.67;101212.50;5079487;28;20039;-62
2023/04/25 05:40:23;;;;;;;13.05;3.67;;;;;;;7.43;82.07;101212.66;5061438;28;20035;-63
2023/04/25 05:42:48;;;;;;;18.52;4.35;;;;;;;7.38;80.43;101214.28;5079243;28;20032;-63
2023/04/25 05:45:13;;;;;;;17.30;4.40;;;;;;;7.34;80.88;101215.91;5079451;28;20082;-62
2023/04/25 05:47:39;;;;;;;10.23;3.30;;;;;;;7.38;nan;101212.53;5079317;28;20135;-63
2023/04/25 05:50:05;;;;;;;14.52;4.13;;;;;;;7.41;80.08;101219.59;5079650;28;20179;-62
2023/04/25 05:52:30;;;;;;;17.27;4.60;;;;;;;7.47;81.11;101223.31;5079494;28;20028;-63
2023/04/25 05:54:56;;;;;;;15.82;4.10;;;;;;;7.55;81.04;101227.91;5079156;28;20029;-63
2023/04/25 05:57:23;;;;;;;17.42;4.00;;;;;;;7.61;80.71;101234.22;5079126;28;20024;-63
2023/04/25 05:59:49;;;;;;;14.43;4.20;;;;;;;7.67;79.98;101241.41;5079462;28;20108;-63
2023/04/25 06:02:14;;;;;;;18.05;3.85;;;;;;;7.74;80.02;101235.47;5079266;28;20517;-63
2023/04/25 06:04:39;;;;;;;23.63;4.28;;;;;;;7.77;78.52;101238.19;5079413;28;20438;-64
2023/04/25 06:07:05;;;;;;;16.13;3.65;;;;;;;7.82;78.83;101251.47;5079394;28;20120;-63
2023/04/25 06:09:30;;;;;;;15.85;4.10;;;;;;;7.85;79.16;101254.19;5079179;28;20440;-62
2023/04/25 06:11:56;;;;;;;14.32;3.58;;;;;;;7.90;79.40;101265.75;5079076;28;20028;-62
2023/04/25 06:14:21;;;;;;;15.98;3.45;;;;;;;7.90;77.44;101258.72;5078928;28;20473;-62
2023/04/25 06:16:46;;;;;;;14.32;3.83;;;;;;;7.90;77.94;101253.47;5079055;28;20035;-62
2023/04/25 06:19:12;;;;;;;15.23;3.42;;;;;;;7.95;77.70;101254.50;5078974;28;20025;-62
2023/04/25 06:21:37;;;;;;;11.93;3.70;;;;;;;7.93;76.40;101243.03;5078990;28;20032;-62
2023/04/25 06:24:03;;;;;;;12.25;3.42;;;;;;;7.91;75.72;101257.00;5079139;28;20090;-63
2023/04/25 06:26:28;;;;;;;10.93;3.08;;;;;;;7.91;76.11;101255.25;5078937;28;20021;-62
2023/04/25 06:28:54;;;;;;;9.70;3.08;;;;;;;8.04;76.39;101256.47;5078925;28;20035;-62
2023/04/25 06:31:19;;;;;;;10.13;3.20;;;;;;;8.11;75.76;101263.72;5079117;28;20032;-62
2023/04/25 06:33:44;;;;;;;10.15;3.25;;;;;;;8.38;74.84;101257.44;5078729;28;20024;-62
2023/04/25 06:36:10;;;;;;;10.00;3.17;;;;;;;8.65;74.52;101257.22;5078982;28;20048;-63
2023/04/25 06:38:35;;;;;;;12.38;3.28;;;;;;;8.92;72.82;101260.56;5078905;28;20029;-62
2023/04/25 06:41:01;;;;;;;13.30;3.38;;;;;;;9.06;72.97;101271.44;5076337;28;20024;-63
2023/04/25 06:43:26;;;;;;;10.70;3.45;;;;;;;9.34;72.64;101269.44;5075459;28;20086;-62
2023/04/25 06:45:52;;;;;;;16.10;3.20;;;;;;;9.49;72.01;101268.00;5075495;28;20021;-63
2023/04/25 06:48:17;;;;;;;8.38;3.20;;;;;;;9.71;71.10;101266.72;5075451;28;20036;-64
2023/04/25 06:50:42;;;;;;;13.98;3.40;;;;;;;9.87;69.42;101274.97;5075687;28;20063;-63
2023/04/25 06:53:08;;;;;;;15.68;3.25;;;;;;;10.01;67.64;101279.66;5075406;28;20055;-63
2023/04/25 06:55:34;;;;;;;7.65;2.70;;;;;;;10.03;66.31;101282.34;5075573;28;20035;-63
2023/04/25 06:58:00;;;;;;;8.55;3.20;;;;;;;10.20;67.22;101272.13;5075194;28;20078;-63
2023/04/25 07:00:25;;;;;;;8.82;2.92;;;;;;;10.24;63.88;101290.72;5075327;28;20025;-63
2023/04/25 07:02:51;;;;;;;12.65;2.90;;;;;;;10.42;64.00;101292.81;5075253;28;20032;-63
2023/04/25 07:05:16;;;;;;;14.07;3.00;;;;;;;10.55;63.40;101285.13;5057255;28;20025;-63
2023/04/25 07:07:41;;;;;;;10.93;2.90;;;;;;;10.70;62.15;101275.69;5075137;28;20035;-63
2023/04/25 07:10:07;;;;;;;16.40;3.85;;;;;;;10.94;62.03;101282.25;5075262;28;20039;-62
2023/04/25 07:12:32;;;;;;;10.57;2.50;;;;;;;11.17;60.76;101286.13;5075321;28;20111;-63
2023/04/25 07:14:58;;;;;;;12.32;2.75;;;;;;;11.39;61.77;101294.38;5075112;28;20032;-62
2023/04/25 07:17:23;;;;;;;11.10;2.72;;;;;;;11.67;60.57;101290.38;5075239;28;20555;-62
2023/04/25 07:19:49;;;;;;;15.32;3.20;;;;;;;11.76;58.32;101296.69;5075070;28;20469;-63
2023/04/25 07:22:15;;;;;;;7.38;2.35;;;;;;;11.92;58.86;101299.56;5075006;28;20023;-62
2023/04/25 07:24:40;;;;;;;8.82;2.72;;;;;;;12.00;57.83;101290.84;5074902;28;20039;-63
2023/04/25 07:27:06;;;;;;;9.15;2.30;;;;;;;12.18;56.75;101297.25;5074594;28;20482;-62
2023/04/25 07:29:31;;;;;;;8.52;2.40;;;;;;;12.36;56.92;101300.06;5074896;28;20083;-62
2023/04/25 07:31:57;;;;;;;8.60;2.38;;;;;;;12.52;57.12;101306.44;5056840;28;20078;-62
2023/04/25 07:34:22;;;;;;;6.68;2.55;;;;;;;12.71;54.00;101307.50;5039854;28;20501;-62
2023/04/25 07:36:48;;;;;;;10.73;2.50;;;;;;;12.65;54.08;101304.81;5074676;28;20388;-62
2023/04/25 07:39:13;;;;;;;10.05;2.60;;;;;;;12.65;54.54;101310.97;5074576;28;20025;-62
2023/04/25 07:41:39;;;;;;;9.32;2.50;;;;;;;12.81;53.71;101317.34;5074655;28;20025;-62
2023/04/25 07:44:04;;;;;;;10.32;2.40;;;;;;;12.85;52.69;101318.22;5056605;28;20036;-62
2023/04/25 07:46:30;;;;;;;6.75;2.28;;;;;;;12.93;51.53;101328.06;5074486;28;20104;-62
2023/04/25 07:48:55;;;;;;;7.70;2.30;;;;;;;12.94;52.80;101328.94;5074658;28;20420;-62
2023/04/25 07:51:21;;;;;;;4.40;2.15;;;;;;;12.93;51.46;101330.72;5074342;28;20469;-62
2023/04/25 07:53:47;;;;;;;7.88;2.28;;;;;;;12.92;51.77;101326.25;5073891;28;20052;-62
2023/04/25 07:56:13;;;;;;;9.95;2.97;;;;;;;13.02;52.40;101336.09;5056089;28;20039;-62
2023/04/25 07:58:38;;;;;;;6.68;2.30;;;;;;;13.14;53.00;101332.63;5074288;28;20029;-62
2023/04/25 08:01:04;;;;;;;11.77;3.20;;;;;;;13.24;53.13;101339.84;5074106;28;20028;-62
2023/04/25 08:03:29;;;;;;;9.20;2.15;;;;;;;13.06;50.52;101331.69;5073956;28;20370;-62
2023/04/25 08:05:55;;;;;;;7.78;2.35;;;;;;;12.81;51.23;101341.19;5074356;28;20033;-62
2023/04/25 08:08:20;;;;;;;10.25;2.50;;;;;;;12.59;52.69;101341.84;5068363;28;20413;-62
2023/04/25 08:10:47;;;;;;;8.70;2.70;;;;;;;12.60;52.58;101349.81;5056158;28;20454;-64
2023/04/25 08:13:13;;;;;;;13.45;2.83;;;;;;;12.61;52.81;101348.06;5074019;28;20054;-62
2023/04/25 08:15:39;;;;;;;9.05;2.60;;;;;;;12.61;52.14;101356.00;5073810;28;20062;-63
2023/04/25 08:18:04;;;;;;;10.27;2.33;;;;;;;12.68;53.55;101356.09;5073641;28;20040;-62
2023/04/25 08:20:30;;;;;;;13.27;2.85;;;;;;;12.72;53.70;101364.97;5054888;28;20021;-62
2023/04/25 08:22:55;;;;;;;12.00;2.83;;;;;;;12.65;52.73;101361.38;5073643;28;20035;-63
2023/04/25 08:25:21;;;;;;;14.65;2.72;;;;;;;12.57;53.63;101360.38;5073479;28;20464;-63
2023/04/25 08:27:46;;;;;;;10.23;2.47;;;;;;;12.43;53.95;101368.19;5073800;28;20032;-62
2023/04/25 08:30:13;;;;;;;8.60;2.67;;;;;;;12.32;53.38;101367.16;5073523;28;20473;-62
2023/04/25 08:32:39;;;;;;;10.70;2.60;;;;;;;12.22;53.96;101381.19;5073544;28;20036;-63
2023/04/25 08:35:05;;;;;;;13.75;2.80;;;;;;;11.98;54.25;101369.38;5047496;28;20505;-63
2023/04/25 08:37:30;;;;;;;12.95;3.10;;;;;;;12.09;54.56;101379.25;5053743;28;20036;-63
2023/04/25 08:39:56;;;;;;;11.90;2.80;;;;;;;12.09;54.88;101388.09;5052169;28;20033;-62
2023/04/25 08:42:22;;;;;;;12.15;2.78;;;;;;;12.16;56.33;101392.59;5052120;28;20470;-63
2023/04/25 08:44:49;;;;;;;11.93;2.60;;;;;;;12.21;55.59;101382.06;5053436;28;20497;-62
2023/04/25 08:47:14;;;;;;;13.27;2.90;;;;;;;12.40;54.83;101386.69;5053745;28;20021;-62
2023/04/25 08:49:45;;;;;;;13.95;2.80;;;;;;;12.75;54.10;101395.03;5053559;28;20542;-62
2023/04/25 08:52:13;;;;;;;10.20;3.00;;;;;;;13.08;52.88;101392.72;5053277;28;20056;-61
2023/04/25 08:54:44;;;;;;;7.70;2.38;;;;;;;13.24;52.43;101392.91;5051967;28;20029;-62
2023/04/25 08:57:10;;;;;;;10.35;2.80;;;;;;;13.31;50.52;101392.94;5053141;28;20029;-62
2023/04/25 08:59:38;;;;;;;11.20;2.58;;;;;;;13.36;51.13;101408.06;5053379;28;20100;-62
2023/04/25 09:02:03;;;;;;;8.57;2.50;;;;;;;13.58;51.62;101416.19;5052968;28;20467;-61
2023/04/25 09:04:32;;;;;;;10.85;2.60;;;;;;;13.67;50.78;101417.16;5051111;28;20102;-61
2023/04/25 09:06:58;;;;;;;8.10;2.60;;;;;;;13.77;49.94;101418.09;5053088;28;20025;-62
2023/04/25 09:09:24;;;;;;;7.40;2.42;;;;;;;13.74;48.94;101423.38;5053213;28;20025;-61
2023/04/25 09:11:49;;;;;;;5.80;2.28;;;;;;;13.63;47.92;101433.03;5051856;28;20031;-61
2023/04/25 09:14:21;;;;;;;8.90;2.47;;;;;;;13.39;48.64;101439.03;5053186;28;20440;-61
2023/04/25 09:16:55;;;;;;;8.27;2.60;;;;;;;13.28;51.01;101445.16;5052796;28;20017;-62
2023/04/25 09:19:26;;;;;;;8.13;2.28;;;;;;;13.31;50.36;101441.63;5052187;28;20048;-62
2023/04/25 09:21:59;;;;;;;8.50;2.50;;;;;;;13.25;47.85;101441.56;5053447;28;20104;-63
2023/04/25 09:24:35;;;;;;;9.93;2.58;;;;;;;13.36;48.96;101449.63;5051558;28;20028;-63
2023/04/25 09:27:03;;;;;;;6.25;2.45;;;;;;;13.36;47.43;101454.91;5052542;28;20043;-62
2023/04/25 09:29:33;;;;;;;8.30;2.10;;;;;;;13.42;47.14;101450.56;5052813;28;20478;-62
2023/04/25 09:32:22;;;;;;;8.75;2.03;;;;;;;13.69;47.37;101451.66;5052806;28;20035;-62
2023/04/25 09:34:50;;;;;;;11.35;2.40;;;;;;;13.71;46.59;101445.50;5063419;28;20076;-61
2023/04/25 09:37:20;;;;;;;6.85;2.50;;;;;;;13.90;46.68;101457.13;5072928;28;20032;-62
2023/04/25 09:39:51;;;;;;;8.93;2.40;;;;;;;14.19;47.34;101457.31;5073070;28;20020;-62
2023/04/25 09:42:17;;;;;;;7.05;2.42;;;;;;;14.61;46.42;101452.25;5072664;28;20115;-62
2023/04/25 09:44:44;;;;;;;10.57;2.60;;;;;;;14.78;47.16;101453.19;5072580;28;20021;-63
2023/04/25 09:47:12;;;;;;;8.65;3.00;;;;;;;14.56;47.43;101457.56;5072889;28;20040;-62
2023/04/25 09:49:42;;;;;;;9.52;2.83;;;;;;;14.36;49.04;101456.53;5038257;28;20024;-62
2023/04/25 09:52:09;;;;;;;6.70;2.40;;;;;;;14.06;48.97;101462.56;5054698;28;20035;-62
2023/04/25 09:54:34;;;;;;;12.00;2.45;;;;;;;13.90;51.11;101465.09;5072662;28;20035;-62
2023/04/25 09:57:13;;;;;;;11.77;2.90;;;;;;;13.84;52.13;101469.50;5072300;28;20032;-62
2023/04/25 09:59:42;;;;;;;7.97;2.60;;;;;;;13.76;51.29;101461.47;5054670;28;20062;-62
2023/04/25 10:02:09;;;;;;;13.60;2.50;;;;;;;14.11;50.91;101461.72;5072550;28;20037;-62
2023/04/25 10:04:35;;;;;;;11.85;2.75;;;;;;;14.63;50.53;101469.97;5072457;28;20153;-62
2023/04/25 10:07:05;;;;;;;10.13;2.60;;;;;;;14.92;48.59;101469.19;5072676;28;20029;-62
2023/04/25 10:09:33;;;;;;;6.53;2.33;;;;;;;15.50;47.44;101470.19;5072377;28;20358;-62
2023/04/25 10:11:59;;;;;;;7.78;2.35;;;;;;;15.93;46.25;101467.53;5054420;28;20500;-62
2023/04/25 10:14:26;;;;;;;6.95;2.40;;;;;;;16.23;44.92;101468.34;5072499;28;20481;-63
2023/04/25 10:16:55;;;;;;;7.43;2.28;;;;;;;16.37;43.66;101465.66;5075632;28;20029;-61
2023/04/25 10:19:21;;;;;;;5.57;2.08;;;;;;;16.31;41.38;101466.56;5076028;28;20174;-62
2023/04/25 10:21:51;;;;;;;5.43;2.08;;;;;;;16.26;38.84;101471.00;5076130;28;20036;-62
2023/04/25 10:24:19;;;;;;;5.63;1.90;;;;;;;16.53;39.75;101467.41;5076082;28;20024;-62
2023/04/25 10:26:45;;;;;;;7.32;2.10;;;;;;;16.75;39.65;101458.44;5075373;28;20056;-62
2023/04/25 10:29:10;;;;;;;8.82;2.33;;;;;;;16.95;38.52;101465.44;5058319;28;20150;-63
2023/04/25 10:31:45;;;;;;;6.07;2.25;;;;;;;17.09;38.38;101454.69;5075803;28;20115;-62
2023/04/25 10:34:11;;;;;;;4.93;2.08;;;;;;;17.31;37.15;101461.66;5075634;28;20060;-61
2023/04/25 10:36:37;;;;;;;5.53;2.40;;;;;;;17.45;38.24;101464.22;5057925;28;20036;-62
2023/04/25 10:39:07;;;;;;;8.52;2.40;;;;;;;17.35;37.42;101459.84;5058328;28;20040;-62
2023/04/25 10:41:46;;;;;;;11.18;2.50;;;;;;;17.30;37.65;101470.56;5075688;28;20044;-63
2023/04/25 10:44:13;;;;;;;4.57;2.00;;;;;;;17.35;38.95;101463.41;5075573;28;20357;-63
2023/04/25 10:46:38;;;;;;;6.43;2.20;;;;;;;17.49;36.14;101461.50;5075718;28;20449;-63
2023/04/25 10:49:04;;;;;;;5.75;2.20;;;;;;;17.98;36.12;101465.56;5075531;28;20116;-63
2023/04/25 10:51:34;;;;;;;6.07;2.20;;;;;;;17.81;35.11;101470.16;5075515;28;20028;-62
2023/04/25 10:54:08;;;;;;;5.13;1.98;;;;;;;17.51;36.40;101465.06;5075523;28;20025;-62
2023/04/25 10:56:39;;;;;;;4.45;1.92;;;;;;;17.16;35.69;101467.97;5057666;28;20047;-62
2023/04/25 10:59:06;;;;;;;6.00;2.10;;;;;;;16.86;36.63;101466.38;5075432;28;20036;-63
2023/04/25 11:01:40;;;;;;;5.20;2.10;;;;;;;16.07;38.96;101479.97;5075642;28;20036;-62
2023/04/25 11:04:18;;;;;;;5.28;2.13;;;;;;;15.65;41.19;101474.66;5075570;28;20039;-63
2023/04/25 11:06:55;;;;;;;9.80;2.30;;;;;;;14.77;43.73;101484.25;5041008;28;20037;-62
2023/04/25 11:09:24;;;;;;;6.15;2.15;;;;;;;14.32;47.85;101491.97;5075481;28;20052;-62
2023/04/25 11:12:00;;;;;;;6.32;1.95;;;;;;;13.82;51.16;101492.50;5075306;28;20052;-62
2023/04/25 11:14:26;;;;;;;8.77;2.30;;;;;;;13.50;53.49;101496.66;5075404;28;20028;-62
2023/04/25 11:17:10;;;;;;;6.18;2.13;;;;;;;13.44;53.99;101498.38;5075049;28;20024;-63
2023/04/25 11:19:36;;;;;;;5.95;2.33;;;;;;;13.24;53.14;101512.34;5057519;28;20135;-63
2023/04/25 11:22:10;;;;;;;5.88;2.10;;;;;;;13.19;54.10;101511.38;5057044;28;20493;-62